sensor_id;sensor_type;location;lat;lon;timestamp;temperature;humidity
59148;DHT22;44930;52.878;6.168;2023-02-22T00:00:40;8.30;99.90
59148;DHT22;44930;52.878;6.168;2023-02-22T00:03:16;8.30;99.90
59148;DHT22;44930;52.878;6.168;2023-02-22T00:05:44;8.20;99.90
59148;DHT22;44930;52.878;6.168;2023-02-22T00:08:12;8.20;99.90
59148;DHT22;44930;52.878;6.168;2023-02-22T00:10:38;8.40;99.90
59148;DHT22;44930;52.878;6.168;2023-02-22T00:13:07;8.30;99.90
59148;DHT22;44930;52.878;6.168;2023-02-22T00:15:34;8.50;99.90
59148;DHT22;44930;52.878;6.168;2023-02-22T00:18:00;8.40;99.90
59148;DHT22;44930;52.878;6.168;2023-02-22T00:20:26;8.20;99.90
59148;DHT22;44930;52.878;6.168;2023-02-22T00:25:20;8.20;99.90
59148;DHT22;44930;52.878;6.168;2023-02-22T00:27:46;8.30;99.90
59148;DHT22;44930;52.878;6.168;2023-02-22T00:30:21;8.60;99.90
59148;DHT22;44930;52.878;6.168;2023-02-22T00:32:49;8.30;99.90
59148;DHT22;44930;52.878;6.168;2023-02-22T00:35:16;8.20;99.90
59148;DHT22;44930;52.878;6.168;2023-02-22T00:37:42;8.50;99.90
59148;DHT22;44930;52.878;6.168;2023-02-22T00:40:14;8.40;99.90
59148;DHT22;44930;52.878;6.168;2023-02-22T00:42:40;8.30;99.90
59148;DHT22;44930;52.878;6.168;2023-02-22T00:45:05;8.20;99.90
59148;DHT22;44930;52.878;6.168;2023-02-22T00:47:31;8.20;99.90
59148;DHT22;44930;52.878;6.168;2023-02-22T00:49:57;8.30;99.90
59148;DHT22;44930;52.878;6.168;2023-02-22T00:52:23;8.20;99.90
59148;DHT22;44930;52.878;6.168;2023-02-22T00:54:48;8.30;99.90
59148;DHT22;44930;52.878;6.168;2023-02-22T00:57:14;8.20;99.90
59148;DHT22;44930;52.878;6.168;2023-02-22T00:59:40;8.30;99.90
59148;DHT22;44930;52.878;6.168;2023-02-22T01:02:05;8.20;99.90
59148;DHT22;44930;52.878;6.168;2023-02-22T01:04:31;8.20;99.90
59148;DHT22;44930;52.878;6.168;2023-02-22T01:06:56;8.20;99.90
59148;DHT22;44930;52.878;6.168;2023-02-22T01:09:24;8.10;99.90
59148;DHT22;44930;52.878;6.168;2023-02-22T01:11:54;8.20;99.90
59148;DHT22;44930;52.878;6.168;2023-02-22T01:14:20;8.20;99.90
59148;DHT22;44930;52.878;6.168;2023-02-22T01:16:47;8.20;99.90
59148;DHT22;44930;52.878;6.168;2023-02-22T01:19:12;8.20;99.90
59148;DHT22;44930;52.878;6.168;2023-02-22T01:21:39;8.20;99.90
59148;DHT22;44930;52.878;6.168;2023-02-22T01:24:05;7.90;99.90
59148;DHT22;44930;52.878;6.168;2023-02-22T01:26:31;8.10;99.90
59148;DHT22;44930;52.878;6.168;2023-02-22T01:28:56;8.00;99.90
59148;DHT22;44930;52.878;6.168;2023-02-22T01:31:22;8.10;99.90
59148;DHT22;44930;52.878;6.168;2023-02-22T01:36:16;8.20;99.90
59148;DHT22;44930;52.878;6.168;2023-02-22T01:38:43;8.20;99.90
59148;DHT22;44930;52.878;6.168;2023-02-22T01:41:10;8.20;99.90
59148;DHT22;44930;52.878;6.168;2023-02-22T01:43:37;8.00;99.90
59148;DHT22;44930;52.878;6.168;2023-02-22T01:46:04;8.00;99.90
59148;DHT22;44930;52.878;6.168;2023-02-22T01:51:11;8.40;99.90
59148;DHT22;44930;52.878;6.168;2023-02-22T01:53:42;8.20;99.90
59148;DHT22;44930;52.878;6.168;2023-02-22T01:56:09;8.00;99.90
59148;DHT22;44930;52.878;6.168;2023-02-22T01:58:38;8.20;99.90
59148;DHT22;44930;52.878;6.168;2023-02-22T02:01:05;8.10;99.90
59148;DHT22;44930;52.878;6.168;2023-02-22T02:06:01;8.10;99.90
59148;DHT22;44930;52.878;6.168;2023-02-22T02:08:38;8.10;99.90
59148;DHT22;44930;52.878;6.168;2023-02-22T02:11:07;8.10;99.90
59148;DHT22;44930;52.878;6.168;2023-02-22T02:13:34;8.10;99.90
59148;DHT22;44930;52.878;6.168;2023-02-22T02:16:00;8.10;99.90
59148;DHT22;44930;52.878;6.168;2023-02-22T02:18:26;8.10;99.90
59148;DHT22;44930;52.878;6.168;2023-02-22T02:21:36;8.10;99.90
59148;DHT22;44930;52.878;6.168;2023-02-22T02:24:31;8.10;99.90
59148;DHT22;44930;52.878;6.168;2023-02-22T02:27:22;8.40;99.90
59148;DHT22;44930;52.878;6.168;2023-02-22T02:32:48;8.10;99.90
59148;DHT22;44930;52.878;6.168;2023-02-22T02:35:31;7.90;99.90
59148;DHT22;44930;52.878;6.168;2023-02-22T02:41:09;8.10;99.90
59148;DHT22;44930;52.878;6.168;2023-02-22T02:43:50;8.10;99.90
59148;DHT22;44930;52.878;6.168;2023-02-22T02:46:46;8.20;99.90
59148;DHT22;44930;52.878;6.168;2023-02-22T02:49:14;8.10;99.90
59148;DHT22;44930;52.878;6.168;2023-02-22T02:54:10;8.10;99.90
59148;DHT22;44930;52.878;6.168;2023-02-22T02:56:37;8.10;99.90
59148;DHT22;44930;52.878;6.168;2023-02-22T02:59:03;7.90;99.90
59148;DHT22;44930;52.878;6.168;2023-02-22T03:01:48;8.10;99.90
59148;DHT22;44930;52.878;6.168;2023-02-22T03:12:46;8.00;99.90
59148;DHT22;44930;52.878;6.168;2023-02-22T03:15:35;8.50;99.90
59148;DHT22;44930;52.878;6.168;2023-02-22T03:23:06;8.00;99.90
59148;DHT22;44930;52.878;6.168;2023-02-22T03:25:39;7.90;99.90
59148;DHT22;44930;52.878;6.168;2023-02-22T03:28:09;8.00;99.90
59148;DHT22;44930;52.878;6.168;2023-02-22T03:30:44;7.90;99.90
59148;DHT22;44930;52.878;6.168;2023-02-22T03:33:17;8.20;99.90
59148;DHT22;44930;52.878;6.168;2023-02-22T03:35:55;7.90;99.90
59148;DHT22;44930;52.878;6.168;2023-02-22T03:38:23;7.90;99.90
59148;DHT22;44930;52.878;6.168;2023-02-22T03:40:51;7.80;99.90
59148;DHT22;44930;52.878;6.168;2023-02-22T03:43:23;7.90;99.90
59148;DHT22;44930;52.878;6.168;2023-02-22T03:45:50;7.90;99.90
59148;DHT22;44930;52.878;6.168;2023-02-22T03:48:25;7.90;99.90
59148;DHT22;44930;52.878;6.168;2023-02-22T03:50:53;7.90;99.90
59148;DHT22;44930;52.878;6.168;2023-02-22T03:58:20;7.80;99.90
59148;DHT22;44930;52.878;6.168;2023-02-22T04:00:46;7.90;99.90
59148;DHT22;44930;52.878;6.168;2023-02-22T04:03:16;7.70;99.90
59148;DHT22;44930;52.878;6.168;2023-02-22T04:05:42;7.90;99.90
59148;DHT22;44930;52.878;6.168;2023-02-22T04:08:07;7.90;99.90
59148;DHT22;44930;52.878;6.168;2023-02-22T04:10:33;7.90;99.90
59148;DHT22;44930;52.878;6.168;2023-02-22T04:12:58;7.80;99.90
59148;DHT22;44930;52.878;6.168;2023-02-22T04:17:50;7.80;99.90
59148;DHT22;44930;52.878;6.168;2023-02-22T04:20:19;7.90;99.90
59148;DHT22;44930;52.878;6.168;2023-02-22T04:22:52;7.60;99.90
59148;DHT22;44930;52.878;6.168;2023-02-22T04:25:20;7.90;99.90
59148;DHT22;44930;52.878;6.168;2023-02-22T04:27:45;7.90;99.90
59148;DHT22;44930;52.878;6.168;2023-02-22T04:30:11;7.90;99.90
59148;DHT22;44930;52.878;6.168;2023-02-22T04:32:37;7.80;99.90
59148;DHT22;44930;52.878;6.168;2023-02-22T04:35:04;7.80;99.90
59148;DHT22;44930;52.878;6.168;2023-02-22T04:37:30;7.70;99.90
59148;DHT22;44930;52.878;6.168;2023-02-22T04:39:59;7.70;99.90
59148;DHT22;44930;52.878;6.168;2023-02-22T04:42:25;7.70;99.90
59148;DHT22;44930;52.878;6.168;2023-02-22T04:44:51;7.90;99.90
59148;DHT22;44930;52.878;6.168;2023-02-22T04:47:16;7.70;99.90
59148;DHT22;44930;52.878;6.168;2023-02-22T04:49:43;7.60;99.90
59148;DHT22;44930;52.878;6.168;2023-02-22T04:52:08;7.60;99.90
59148;DHT22;44930;52.878;6.168;2023-02-22T04:54:34;7.70;99.90
59148;DHT22;44930;52.878;6.168;2023-02-22T04:56:59;7.60;99.90
59148;DHT22;44930;52.878;6.168;2023-02-22T04:59:25;7.60;99.90
59148;DHT22;44930;52.878;6.168;2023-02-22T05:01:50;7.70;99.90
59148;DHT22;44930;52.878;6.168;2023-02-22T05:06:42;7.60;99.90
59148;DHT22;44930;52.878;6.168;2023-02-22T05:09:07;7.60;99.90
59148;DHT22;44930;52.878;6.168;2023-02-22T05:11:33;7.50;99.90
59148;DHT22;44930;52.878;6.168;2023-02-22T05:13:58;7.50;99.90
59148;DHT22;44930;52.878;6.168;2023-02-22T05:16:24;7.50;99.90
59148;DHT22;44930;52.878;6.168;2023-02-22T05:18:50;7.50;99.90
59148;DHT22;44930;52.878;6.168;2023-02-22T05:21:16;7.60;99.90
59148;DHT22;44930;52.878;6.168;2023-02-22T05:23:42;7.60;99.90
59148;DHT22;44930;52.878;6.168;2023-02-22T05:26:08;7.50;99.90
59148;DHT22;44930;52.878;6.168;2023-02-22T05:28:34;7.40;99.90
59148;DHT22;44930;52.878;6.168;2023-02-22T05:31:00;7.40;99.90
59148;DHT22;44930;52.878;6.168;2023-02-22T05:33:25;7.30;99.90
59148;DHT22;44930;52.878;6.168;2023-02-22T05:35:51;7.40;99.90
59148;DHT22;44930;52.878;6.168;2023-02-22T05:38:16;7.30;99.90
59148;DHT22;44930;52.878;6.168;2023-02-22T05:40:42;7.40;99.90
59148;DHT22;44930;52.878;6.168;2023-02-22T05:43:08;7.30;99.90
59148;DHT22;44930;52.878;6.168;2023-02-22T05:45:34;7.40;99.90
59148;DHT22;44930;52.878;6.168;2023-02-22T05:48:01;7.20;99.90
59148;DHT22;44930;52.878;6.168;2023-02-22T05:50:27;7.20;99.90
59148;DHT22;44930;52.878;6.168;2023-02-22T05:52:53;7.10;99.90
59148;DHT22;44930;52.878;6.168;2023-02-22T05:55:22;7.10;99.90
59148;DHT22;44930;52.878;6.168;2023-02-22T05:57:48;7.00;99.90
59148;DHT22;44930;52.878;6.168;2023-02-22T06:00:19;6.80;99.90
59148;DHT22;44930;52.878;6.168;2023-02-22T06:02:44;7.00;99.90
59148;DHT22;44930;52.878;6.168;2023-02-22T06:05:10;6.90;99.90
59148;DHT22;44930;52.878;6.168;2023-02-22T06:10:02;6.90;99.90
59148;DHT22;44930;52.878;6.168;2023-02-22T06:12:27;6.60;99.90
59148;DHT22;44930;52.878;6.168;2023-02-22T06:14:53;6.70;99.90
59148;DHT22;44930;52.878;6.168;2023-02-22T06:17:19;6.60;99.90
59148;DHT22;44930;52.878;6.168;2023-02-22T06:19:44;6.60;99.90
59148;DHT22;44930;52.878;6.168;2023-02-22T06:22:19;6.20;99.90
59148;DHT22;44930;52.878;6.168;2023-02-22T06:24:44;6.50;99.90
59148;DHT22;44930;52.878;6.168;2023-02-22T06:27:10;6.60;99.90
59148;DHT22;44930;52.878;6.168;2023-02-22T06:29:36;6.50;99.90
59148;DHT22;44930;52.878;6.168;2023-02-22T06:32:02;6.70;99.90
59148;DHT22;44930;52.878;6.168;2023-02-22T06:36:53;6.50;99.90
59148;DHT22;44930;52.878;6.168;2023-02-22T06:39:19;6.50;99.90
59148;DHT22;44930;52.878;6.168;2023-02-22T06:41:45;6.50;99.90
59148;DHT22;44930;52.878;6.168;2023-02-22T06:44:12;6.30;99.90
59148;DHT22;44930;52.878;6.168;2023-02-22T06:46:39;6.70;99.90
59148;DHT22;44930;52.878;6.168;2023-02-22T06:49:05;6.40;99.90
59148;DHT22;44930;52.878;6.168;2023-02-22T06:51:35;6.50;99.90
59148;DHT22;44930;52.878;6.168;2023-02-22T06:54:01;6.40;99.90
59148;DHT22;44930;52.878;6.168;2023-02-22T06:56:27;6.40;99.90
59148;DHT22;44930;52.878;6.168;2023-02-22T06:58:52;6.50;99.90
59148;DHT22;44930;52.878;6.168;2023-02-22T07:01:18;6.40;99.90
59148;DHT22;44930;52.878;6.168;2023-02-22T07:06:09;6.30;99.90
59148;DHT22;44930;52.878;6.168;2023-02-22T07:08:35;6.30;99.90
59148;DHT22;44930;52.878;6.168;2023-02-22T07:11:01;6.20;99.90
59148;DHT22;44930;52.878;6.168;2023-02-22T07:13:27;6.30;99.90
59148;DHT22;44930;52.878;6.168;2023-02-22T07:15:52;6.40;99.90
59148;DHT22;44930;52.878;6.168;2023-02-22T07:18:18;6.40;99.90
59148;DHT22;44930;52.878;6.168;2023-02-22T07:20:44;6.30;99.90
59148;DHT22;44930;52.878;6.168;2023-02-22T07:23:13;6.40;99.90
59148;DHT22;44930;52.878;6.168;2023-02-22T07:25:39;6.30;99.90
59148;DHT22;44930;52.878;6.168;2023-02-22T07:28:04;6.30;99.90
59148;DHT22;44930;52.878;6.168;2023-02-22T07:33:01;6.50;99.90
59148;DHT22;44930;52.878;6.168;2023-02-22T07:35:28;6.40;99.90
59148;DHT22;44930;52.878;6.168;2023-02-22T07:40:21;6.40;99.90
59148;DHT22;44930;52.878;6.168;2023-02-22T07:42:51;6.50;99.90
59148;DHT22;44930;52.878;6.168;2023-02-22T07:47:45;6.50;99.90
59148;DHT22;44930;52.878;6.168;2023-02-22T07:50:13;6.40;99.90
59148;DHT22;44930;52.878;6.168;2023-02-22T07:52:39;6.60;99.90
59148;DHT22;44930;52.878;6.168;2023-02-22T07:55:04;6.60;99.90
59148;DHT22;44930;52.878;6.168;2023-02-22T07:57:31;6.70;99.90
59148;DHT22;44930;52.878;6.168;2023-02-22T07:59:57;6.70;99.90
59148;DHT22;44930;52.878;6.168;2023-02-22T08:02:25;6.70;99.90
59148;DHT22;44930;52.878;6.168;2023-02-22T08:04:50;6.70;99.90
59148;DHT22;44930;52.878;6.168;2023-02-22T08:07:16;6.80;99.90
59148;DHT22;44930;52.878;6.168;2023-02-22T08:09:41;6.70;99.90
59148;DHT22;44930;52.878;6.168;2023-02-22T08:12:07;6.90;99.90
59148;DHT22;44930;52.878;6.168;2023-02-22T08:14:33;6.90;99.90
59148;DHT22;44930;52.878;6.168;2023-02-22T08:16:58;6.90;99.90
59148;DHT22;44930;52.878;6.168;2023-02-22T08:19:24;7.10;99.90
59148;DHT22;44930;52.878;6.168;2023-02-22T08:21:49;7.00;99.90
59148;DHT22;44930;52.878;6.168;2023-02-22T08:26:45;6.90;99.90
59148;DHT22;44930;52.878;6.168;2023-02-22T08:29:11;7.10;99.90
59148;DHT22;44930;52.878;6.168;2023-02-22T08:31:39;7.00;99.90
59148;DHT22;44930;52.878;6.168;2023-02-22T08:36:30;7.10;99.90
59148;DHT22;44930;52.878;6.168;2023-02-22T08:38:57;7.30;99.90
59148;DHT22;44930;52.878;6.168;2023-02-22T08:41:23;7.30;99.90
59148;DHT22;44930;52.878;6.168;2023-02-22T08:43:48;7.40;99.90
59148;DHT22;44930;52.878;6.168;2023-02-22T08:46:15;7.50;99.90
59148;DHT22;44930;52.878;6.168;2023-02-22T08:48:51;7.70;99.90
59148;DHT22;44930;52.878;6.168;2023-02-22T08:51:17;7.40;99.90
59148;DHT22;44930;52.878;6.168;2023-02-22T08:53:42;7.40;99.90
59148;DHT22;44930;52.878;6.168;2023-02-22T08:56:09;7.50;99.90
59148;DHT22;44930;52.878;6.168;2023-02-22T08:58:35;7.50;99.90
59148;DHT22;44930;52.878;6.168;2023-02-22T09:01:00;7.50;99.90
59148;DHT22;44930;52.878;6.168;2023-02-22T09:03:26;7.50;99.90
59148;DHT22;44930;52.878;6.168;2023-02-22T09:05:52;7.50;99.90
59148;DHT22;44930;52.878;6.168;2023-02-22T09:08:18;7.40;99.90
59148;DHT22;44930;52.878;6.168;2023-02-22T09:10:43;7.60;99.90
59148;DHT22;44930;52.878;6.168;2023-02-22T09:15:36;7.60;99.90
59148;DHT22;44930;52.878;6.168;2023-02-22T09:18:03;7.60;99.90
59148;DHT22;44930;52.878;6.168;2023-02-22T09:20:29;7.60;99.90
59148;DHT22;44930;52.878;6.168;2023-02-22T09:22:56;7.70;99.90
59148;DHT22;44930;52.878;6.168;2023-02-22T09:25:22;7.60;99.90
59148;DHT22;44930;52.878;6.168;2023-02-22T09:27:49;7.60;99.90
59148;DHT22;44930;52.878;6.168;2023-02-22T09:32:50;7.50;99.90
59148;DHT22;44930;52.878;6.168;2023-02-22T09:37:42;7.60;99.90
59148;DHT22;44930;52.878;6.168;2023-02-22T09:40:17;7.60;99.90
59148;DHT22;44930;52.878;6.168;2023-02-22T09:46:30;7.70;99.90
59148;DHT22;44930;52.878;6.168;2023-02-22T09:54:40;7.50;99.90
59148;DHT22;44930;52.878;6.168;2023-02-22T09:57:12;7.60;99.90
59148;DHT22;44930;52.878;6.168;2023-02-22T10:00:16;7.70;99.90
59148;DHT22;44930;52.878;6.168;2023-02-22T10:02:56;7.80;99.90
59148;DHT22;44930;52.878;6.168;2023-02-22T10:05:28;7.50;99.90
59148;DHT22;44930;52.878;6.168;2023-02-22T10:08:03;7.80;99.90
59148;DHT22;44930;52.878;6.168;2023-02-22T10:10:35;7.80;99.90
59148;DHT22;44930;52.878;6.168;2023-02-22T10:13:28;7.70;99.90
59148;DHT22;44930;52.878;6.168;2023-02-22T10:19:00;7.90;99.90
59148;DHT22;44930;52.878;6.168;2023-02-22T10:24:42;7.80;99.90
59148;DHT22;44930;52.878;6.168;2023-02-22T10:27:21;7.90;99.90
59148;DHT22;44930;52.878;6.168;2023-02-22T10:30:41;7.90;99.90
59148;DHT22;44930;52.878;6.168;2023-02-22T10:32:51;7.90;99.90
59148;DHT22;44930;52.878;6.168;2023-02-22T10:35:35;7.90;99.90
59148;DHT22;44930;52.878;6.168;2023-02-22T10:38:16;8.10;99.90
59148;DHT22;44930;52.878;6.168;2023-02-22T10:43:14;8.20;99.90
59148;DHT22;44930;52.878;6.168;2023-02-22T10:48:12;8.30;99.90
59148;DHT22;44930;52.878;6.168;2023-02-22T10:50:42;8.40;99.90
59148;DHT22;44930;52.878;6.168;2023-02-22T10:53:09;8.20;99.90
59148;DHT22;44930;52.878;6.168;2023-02-22T10:55:35;8.30;99.90
59148;DHT22;44930;52.878;6.168;2023-02-22T11:00:48;8.20;99.90
59148;DHT22;44930;52.878;6.168;2023-02-22T11:03:18;8.20;99.90
59148;DHT22;44930;52.878;6.168;2023-02-22T11:10:46;8.30;99.90
59148;DHT22;44930;52.878;6.168;2023-02-22T11:13:31;8.10;99.90
59148;DHT22;44930;52.878;6.168;2023-02-22T11:16:00;8.20;99.90
59148;DHT22;44930;52.878;6.168;2023-02-22T11:18:40;8.40;99.90
59148;DHT22;44930;52.878;6.168;2023-02-22T11:21:09;8.30;99.90
59148;DHT22;44930;52.878;6.168;2023-02-22T11:23:38;8.30;99.90
59148;DHT22;44930;52.878;6.168;2023-02-22T11:26:16;8.40;99.90
59148;DHT22;44930;52.878;6.168;2023-02-22T11:28:48;8.60;99.90
59148;DHT22;44930;52.878;6.168;2023-02-22T11:31:20;8.30;99.90
59148;DHT22;44930;52.878;6.168;2023-02-22T11:33:58;8.60;99.90
59148;DHT22;44930;52.878;6.168;2023-02-22T11:36:38;8.70;99.90
59148;DHT22;44930;52.878;6.168;2023-02-22T11:39:28;8.50;99.90
59148;DHT22;44930;52.878;6.168;2023-02-22T11:41:57;8.90;99.90
59148;DHT22;44930;52.878;6.168;2023-02-22T11:44:27;8.90;99.90
59148;DHT22;44930;52.878;6.168;2023-02-22T11:46:55;9.00;99.90
59148;DHT22;44930;52.878;6.168;2023-02-22T11:49:32;8.90;99.90
59148;DHT22;44930;52.878;6.168;2023-02-22T11:52:20;8.60;99.90
59148;DHT22;44930;52.878;6.168;2023-02-22T11:55:06;9.00;99.90
59148;DHT22;44930;52.878;6.168;2023-02-22T11:57:43;9.10;99.90
59148;DHT22;44930;52.878;6.168;2023-02-22T12:00:16;9.20;99.90
59148;DHT22;44930;52.878;6.168;2023-02-22T12:03:27;9.40;99.90
59148;DHT22;44930;52.878;6.168;2023-02-22T12:09:10;9.30;99.90
59148;DHT22;44930;52.878;6.168;2023-02-22T12:19:42;9.50;99.90
59148;DHT22;44930;52.878;6.168;2023-02-22T12:22:14;9.60;99.90
59148;DHT22;44930;52.878;6.168;2023-02-22T12:24:46;9.50;99.90
59148;DHT22;44930;52.878;6.168;2023-02-22T12:27:31;9.30;99.90
59148;DHT22;44930;52.878;6.168;2023-02-22T12:30:04;9.50;99.90
59148;DHT22;44930;52.878;6.168;2023-02-22T12:32:46;9.40;99.90
59148;DHT22;44930;52.878;6.168;2023-02-22T12:35:29;9.40;99.90
59148;DHT22;44930;52.878;6.168;2023-02-22T12:41:24;9.60;99.90
59148;DHT22;44930;52.878;6.168;2023-02-22T12:46:36;9.60;99.90
59148;DHT22;44930;52.878;6.168;2023-02-22T12:51:59;9.50;99.90
59148;DHT22;44930;52.878;6.168;2023-02-22T12:57:36;9.40;99.90
59148;DHT22;44930;52.878;6.168;2023-02-22T13:00:20;9.10;99.90
59148;DHT22;44930;52.878;6.168;2023-02-22T13:03:04;9.30;99.90
59148;DHT22;44930;52.878;6.168;2023-02-22T13:05:37;9.20;99.90
59148;DHT22;44930;52.878;6.168;2023-02-22T13:10:55;9.10;99.90
59148;DHT22;44930;52.878;6.168;2023-02-22T13:13:43;9.30;99.90
59148;DHT22;44930;52.878;6.168;2023-02-22T13:16:32;9.10;99.90
59148;DHT22;44930;52.878;6.168;2023-02-22T13:21:51;9.50;99.90
59148;DHT22;44930;52.878;6.168;2023-02-22T13:25:21;9.10;99.90
59148;DHT22;44930;52.878;6.168;2023-02-22T13:27:28;9.10;99.90
59148;DHT22;44930;52.878;6.168;2023-02-22T13:29:58;9.10;99.90
59148;DHT22;44930;52.878;6.168;2023-02-22T13:40:56;9.20;99.90
59148;DHT22;44930;52.878;6.168;2023-02-22T13:46:30;9.20;99.90
59148;DHT22;44930;52.878;6.168;2023-02-22T13:51:46;9.20;99.90
59148;DHT22;44930;52.878;6.168;2023-02-22T13:54:28;9.20;99.90
59148;DHT22;44930;52.878;6.168;2023-02-22T13:56:59;9.20;99.90
59148;DHT22;44930;52.878;6.168;2023-02-22T13:59:33;9.20;99.90
59148;DHT22;44930;52.878;6.168;2023-02-22T14:02:02;9.20;99.90
59148;DHT22;44930;52.878;6.168;2023-02-22T14:04:35;9.30;99.90
59148;DHT22;44930;52.878;6.168;2023-02-22T14:10:00;9.30;99.90
59148;DHT22;44930;52.878;6.168;2023-02-22T14:17:36;9.80;99.90
59148;DHT22;44930;52.878;6.168;2023-02-22T14:20:20;9.40;99.90
59148;DHT22;44930;52.878;6.168;2023-02-22T14:22:51;9.30;99.90
59148;DHT22;44930;52.878;6.168;2023-02-22T14:25:38;9.40;99.90
59148;DHT22;44930;52.878;6.168;2023-02-22T14:31:23;9.50;99.90
59148;DHT22;44930;52.878;6.168;2023-02-22T14:41:31;9.60;99.90
59148;DHT22;44930;52.878;6.168;2023-02-22T14:43:58;9.60;99.90
59148;DHT22;44930;52.878;6.168;2023-02-22T14:46:31;9.60;99.90
59148;DHT22;44930;52.878;6.168;2023-02-22T14:51:33;9.30;99.90
59148;DHT22;44930;52.878;6.168;2023-02-22T14:54:28;9.70;99.90
59148;DHT22;44930;52.878;6.168;2023-02-22T14:57:08;9.40;99.90
59148;DHT22;44930;52.878;6.168;2023-02-22T15:00:00;9.60;99.90
59148;DHT22;44930;52.878;6.168;2023-02-22T15:02:37;9.50;99.90
59148;DHT22;44930;52.878;6.168;2023-02-22T15:05:03;9.60;99.90
59148;DHT22;44930;52.878;6.168;2023-02-22T15:07:30;9.60;99.90
59148;DHT22;44930;52.878;6.168;2023-02-22T15:10:14;9.60;99.90
59148;DHT22;44930;52.878;6.168;2023-02-22T15:15:33;9.60;99.90
59148;DHT22;44930;52.878;6.168;2023-02-22T15:18:00;9.60;99.90
59148;DHT22;44930;52.878;6.168;2023-02-22T15:20:26;9.70;99.90
59148;DHT22;44930;52.878;6.168;2023-02-22T15:22:58;9.30;99.90
59148;DHT22;44930;52.878;6.168;2023-02-22T15:25:27;9.40;99.90
59148;DHT22;44930;52.878;6.168;2023-02-22T15:27:53;9.50;99.90
59148;DHT22;44930;52.878;6.168;2023-02-22T15:30:27;9.60;99.90
59148;DHT22;44930;52.878;6.168;2023-02-22T15:32:54;9.20;99.90
59148;DHT22;44930;52.878;6.168;2023-02-22T15:35:26;9.20;99.90
59148;DHT22;44930;52.878;6.168;2023-02-22T15:38:14;9.50;99.90
59148;DHT22;44930;52.878;6.168;2023-02-22T15:40:41;9.30;99.90
59148;DHT22;44930;52.878;6.168;2023-02-22T15:43:21;9.30;99.90
59148;DHT22;44930;52.878;6.168;2023-02-22T15:45:53;9.50;99.90
59148;DHT22;44930;52.878;6.168;2023-02-22T15:48:20;9.30;99.90
59148;DHT22;44930;52.878;6.168;2023-02-22T15:51:08;9.20;99.90
59148;DHT22;44930;52.878;6.168;2023-02-22T15:56:15;9.30;99.90
59148;DHT22;44930;52.878;6.168;2023-02-22T15:58:42;9.20;99.90
59148;DHT22;44930;52.878;6.168;2023-02-22T16:01:12;9.20;99.90
59148;DHT22;44930;52.878;6.168;2023-02-22T16:03:56;9.70;99.90
59148;DHT22;44930;52.878;6.168;2023-02-22T16:06:37;9.20;99.90
59148;DHT22;44930;52.878;6.168;2023-02-22T16:11:35;9.10;99.90
59148;DHT22;44930;52.878;6.168;2023-02-22T16:19:38;9.10;99.90
59148;DHT22;44930;52.878;6.168;2023-02-22T16:24:38;9.10;99.90
59148;DHT22;44930;52.878;6.168;2023-02-22T16:27:24;8.70;99.90
59148;DHT22;44930;52.878;6.168;2023-02-22T16:30:05;9.00;99.90
59148;DHT22;44930;52.878;6.168;2023-02-22T16:32:32;9.00;99.90
59148;DHT22;44930;52.878;6.168;2023-02-22T16:34:57;9.00;99.90
59148;DHT22;44930;52.878;6.168;2023-02-22T16:39:49;9.00;99.90
59148;DHT22;44930;52.878;6.168;2023-02-22T16:42:17;9.00;99.90
59148;DHT22;44930;52.878;6.168;2023-02-22T16:44:51;9.20;99.90
59148;DHT22;44930;52.878;6.168;2023-02-22T16:47:17;8.80;99.90
59148;DHT22;44930;52.878;6.168;2023-02-22T16:49:44;9.00;99.90
59148;DHT22;44930;52.878;6.168;2023-02-22T16:52:10;8.80;99.90
59148;DHT22;44930;52.878;6.168;2023-02-22T16:54:42;8.80;99.90
59148;DHT22;44930;52.878;6.168;2023-02-22T16:57:16;8.90;99.90
59148;DHT22;44930;52.878;6.168;2023-02-22T16:59:43;8.90;99.90
59148;DHT22;44930;52.878;6.168;2023-02-22T17:02:13;8.80;99.90
59148;DHT22;44930;52.878;6.168;2023-02-22T17:04:40;8.80;99.90
59148;DHT22;44930;52.878;6.168;2023-02-22T17:07:05;8.70;99.90
59148;DHT22;44930;52.878;6.168;2023-02-22T17:09:33;8.80;99.90
59148;DHT22;44930;52.878;6.168;2023-02-22T17:12:00;8.80;99.90
59148;DHT22;44930;52.878;6.168;2023-02-22T17:14:30;8.60;99.90
59148;DHT22;44930;52.878;6.168;2023-02-22T17:16:57;8.90;99.90
59148;DHT22;44930;52.878;6.168;2023-02-22T17:19:25;8.80;99.90
59148;DHT22;44930;52.878;6.168;2023-02-22T17:21:51;8.80;99.90
59148;DHT22;44930;52.878;6.168;2023-02-22T17:24:20;8.70;99.90
59148;DHT22;44930;52.878;6.168;2023-02-22T17:26:47;8.90;99.90
59148;DHT22;44930;52.878;6.168;2023-02-22T17:29:13;8.80;99.90
59148;DHT22;44930;52.878;6.168;2023-02-22T17:31:39;8.80;99.90
59148;DHT22;44930;52.878;6.168;2023-02-22T17:36:33;8.70;99.90
59148;DHT22;44930;52.878;6.168;2023-02-22T17:39:01;8.70;99.90
59148;DHT22;44930;52.878;6.168;2023-02-22T17:41:27;8.60;99.90
59148;DHT22;44930;52.878;6.168;2023-02-22T17:43:52;8.70;99.90
59148;DHT22;44930;52.878;6.168;2023-02-22T17:46:19;8.60;99.90
59148;DHT22;44930;52.878;6.168;2023-02-22T17:51:13;8.50;99.90
59148;DHT22;44930;52.878;6.168;2023-02-22T17:53:39;8.60;99.90
59148;DHT22;44930;52.878;6.168;2023-02-22T17:56:09;8.60;99.90
59148;DHT22;44930;52.878;6.168;2023-02-22T17:58:36;8.50;99.90
59148;DHT22;44930;52.878;6.168;2023-02-22T18:01:01;8.40;99.90
59148;DHT22;44930;52.878;6.168;2023-02-22T18:03:27;8.40;99.90
59148;DHT22;44930;52.878;6.168;2023-02-22T18:05:56;8.30;99.90
59148;DHT22;44930;52.878;6.168;2023-02-22T18:08:28;8.30;99.90
59148;DHT22;44930;52.878;6.168;2023-02-22T18:10:55;8.40;99.90
59148;DHT22;44930;52.878;6.168;2023-02-22T18:13:22;8.10;99.90
59148;DHT22;44930;52.878;6.168;2023-02-22T18:18:15;8.30;99.90
59148;DHT22;44930;52.878;6.168;2023-02-22T18:20:43;8.40;99.90
59148;DHT22;44930;52.878;6.168;2023-02-22T18:23:14;8.50;99.90
59148;DHT22;44930;52.878;6.168;2023-02-22T18:25:45;8.50;99.90
59148;DHT22;44930;52.878;6.168;2023-02-22T18:28:13;8.50;99.90
59148;DHT22;44930;52.878;6.168;2023-02-22T18:30:39;8.40;99.90
59148;DHT22;44930;52.878;6.168;2023-02-22T18:33:05;8.60;99.90
59148;DHT22;44930;52.878;6.168;2023-02-22T18:35:36;8.40;99.90
59148;DHT22;44930;52.878;6.168;2023-02-22T18:38:02;8.60;99.90
59148;DHT22;44930;52.878;6.168;2023-02-22T18:40:28;8.40;99.90
59148;DHT22;44930;52.878;6.168;2023-02-22T18:42:53;8.50;99.90
59148;DHT22;44930;52.878;6.168;2023-02-22T18:45:19;8.60;99.90
59148;DHT22;44930;52.878;6.168;2023-02-22T18:47:45;8.50;99.90
59148;DHT22;44930;52.878;6.168;2023-02-22T18:50:12;8.50;99.90
59148;DHT22;44930;52.878;6.168;2023-02-22T18:52:38;8.50;99.90
59148;DHT22;44930;52.878;6.168;2023-02-22T18:55:14;8.40;99.90
59148;DHT22;44930;52.878;6.168;2023-02-22T18:57:40;8.50;99.90
59148;DHT22;44930;52.878;6.168;2023-02-22T19:00:07;8.30;99.90
59148;DHT22;44930;52.878;6.168;2023-02-22T19:02:33;8.40;99.90
59148;DHT22;44930;52.878;6.168;2023-02-22T19:04:59;8.30;99.90
59148;DHT22;44930;52.878;6.168;2023-02-22T19:07:25;8.30;99.90
59148;DHT22;44930;52.878;6.168;2023-02-22T19:09:50;8.50;99.90